createdAt,value
2022-09-26T00:13:46.129Z,16.06
2022-09-26T00:33:46.203Z,16.06
2022-09-26T00:53:46.080Z,15.87
2022-09-26T01:13:46.097Z,15.87
2022-09-26T01:33:46.018Z,16.00
2022-09-26T01:53:46.060Z,16.00
2022-09-26T02:13:46.062Z,15.81
2022-09-26T02:33:46.017Z,15.87
2022-09-26T02:53:46.004Z,15.81
2022-09-26T03:13:45.961Z,15.81
2022-09-26T03:33:45.997Z,15.81
2022-09-26T03:53:45.966Z,15.81
2022-09-26T04:13:45.887Z,15.75
2022-09-26T04:33:45.907Z,15.75
2022-09-26T04:53:45.932Z,15.75
2022-09-26T05:13:45.853Z,15.75
2022-09-26T05:33:45.920Z,15.87
2022-09-26T05:53:45.831Z,15.75
2022-09-26T06:13:45.843Z,15.81
2022-09-26T06:33:45.837Z,15.81
2022-09-26T06:53:45.758Z,15.75
2022-09-26T07:13:45.778Z,15.87
2022-09-26T07:33:45.797Z,15.68
2022-09-26T07:53:45.726Z,15.75
2022-09-26T08:13:45.779Z,15.75
2022-09-26T08:33:45.661Z,15.56
2022-09-26T08:53:45.691Z,15.81
2022-09-26T09:13:45.623Z,15.87
2022-09-26T09:33:45.635Z,15.68
2022-09-26T09:53:45.668Z,15.87
2022-09-26T10:13:45.573Z,15.93
2022-09-26T10:33:45.603Z,15.93
2022-09-26T10:53:45.518Z,16.00
2022-09-26T11:13:45.545Z,16.06
2022-09-26T11:33:45.483Z,15.87
2022-09-26T11:53:45.508Z,16.00
2022-09-26T12:13:45.517Z,16.00
2022-09-26T12:33:45.448Z,16.25
2022-09-26T12:53:45.471Z,16.18
2022-09-26T13:13:45.404Z,16.25
2022-09-26T13:33:45.499Z,16.18
2022-09-26T13:53:45.344Z,16.12
2022-09-26T14:13:45.365Z,16.31
2022-09-26T14:33:45.287Z,16.25
2022-09-26T14:53:45.323Z,16.25
2022-09-26T15:13:45.304Z,16.37
2022-09-26T15:33:45.290Z,16.31
2022-09-26T15:53:45.222Z,16.12
2022-09-26T16:13:45.238Z,16.18
2022-09-26T16:33:45.201Z,16.31
2022-09-26T16:53:45.188Z,16.18
2022-09-26T17:13:45.112Z,16.31
2022-09-26T17:33:45.138Z,16.31
2022-09-26T17:53:45.162Z,16.31
2022-09-26T18:13:45.166Z,16.12
2022-09-26T18:33:45.102Z,16.06
2022-09-26T18:53:45.075Z,16.00
2022-09-26T19:13:45.048Z,16.00
2022-09-26T19:33:45.157Z,16.06
2022-09-26T19:53:45.084Z,16.00
2022-09-26T20:13:45.057Z,15.93
2022-09-26T20:33:44.945Z,15.87
2022-09-26T20:53:44.954Z,15.87
2022-09-26T21:13:44.992Z,15.81
2022-09-26T21:33:44.894Z,15.81
2022-09-26T21:53:45.001Z,15.75
2022-09-26T22:13:44.940Z,15.75
2022-09-26T22:33:44.870Z,15.81
2022-09-26T22:53:44.885Z,15.93
2022-09-26T23:13:44.800Z,15.87
2022-09-26T23:33:44.823Z,15.68
2022-09-26T23:53:44.845Z,15.87
